Lowden, Washington
Current Conditions -  °F | °C
As of 9:13 AM on Thursday 30 Oct 2014 (Local Time) from KALW Reporting Station
Haze Haze  
Wind Chill: 50°   Ceiling: 8000
Heat Index: 50°   Visibility: 1.2mi
Dew Point: 49°   Wind: 7mph
Humidity: 96%   Direction: 170°S
Pressure: 30.05"   Gusts: NA
Location:  46.1196°N, 118.708°W
Report Text: KALW 301613Z 17006KT 1 1/4SM BR SCT003 BKN080 OVC095 10/09 A3005 RMK AO2 RAE1555 P0000 T01000094
Loading
Personal Weather Stations






























Interactive Weather Map
Tropical Storm Tracking
New forecast layout! Learn more

10-Day Weather Forecast

Advertisements
Track Severe Weather on mobile